sensor_id;sensor_type;location;lat;lon;timestamp;pressure;altitude;pressure_sealevel;temperature;humidity
68986;BME280;56035;37.534;-122.308;2023-05-08T00:02:03;101690.75;;;15.16;92.74
68986;BME280;56035;37.534;-122.308;2023-05-08T00:04:29;101693.69;;;15.10;84.92
68986;BME280;56035;37.534;-122.308;2023-05-08T00:06:56;101686.13;;;15.05;91.31
68986;BME280;56035;37.534;-122.308;2023-05-08T00:09:22;101675.75;;;15.01;93.34
68986;BME280;56035;37.534;-122.308;2023-05-08T00:11:48;101685.38;;;15.10;96.73
68986;BME280;56035;37.534;-122.308;2023-05-08T00:14:14;101682.41;;;14.99;95.48
68986;BME280;56035;37.534;-122.308;2023-05-08T00:16:40;101674.41;;;14.86;98.47
68986;BME280;56035;37.534;-122.308;2023-05-08T00:19:06;101669.19;;;14.90;100.00
68986;BME280;56035;37.534;-122.308;2023-05-08T00:21:33;101678.44;;;14.79;98.82
68986;BME280;56035;37.534;-122.308;2023-05-08T00:23:59;101683.97;;;14.79;100.00
68986;BME280;56035;37.534;-122.308;2023-05-08T00:26:25;101671.50;;;14.81;100.00
68986;BME280;56035;37.534;-122.308;2023-05-08T00:28:51;101665.63;;;14.78;100.00
68986;BME280;56035;37.534;-122.308;2023-05-08T00:31:18;101673.38;;;14.75;100.00
68986;BME280;56035;37.534;-122.308;2023-05-08T00:33:44;101672.56;;;14.63;100.00
68986;BME280;56035;37.534;-122.308;2023-05-08T00:36:10;101671.28;;;14.54;100.00
68986;BME280;56035;37.534;-122.308;2023-05-08T00:38:37;101669.38;;;14.43;100.00
68986;BME280;56035;37.534;-122.308;2023-05-08T00:41:03;101669.16;;;14.33;100.00
68986;BME280;56035;37.534;-122.308;2023-05-08T00:43:29;101667.34;;;14.26;100.00
68986;BME280;56035;37.534;-122.308;2023-05-08T00:45:57;101658.44;;;14.24;100.00
68986;BME280;56035;37.534;-122.308;2023-05-08T00:48:28;101669.28;;;14.26;100.00
68986;BME280;56035;37.534;-122.308;2023-05-08T00:50:55;101667.50;;;14.08;100.00
68986;BME280;56035;37.534;-122.308;2023-05-08T00:53:22;101668.47;;;14.02;100.00
68986;BME280;56035;37.534;-122.308;2023-05-08T00:55:51;101670.06;;;13.98;100.00
68986;BME280;56035;37.534;-122.308;2023-05-08T00:58:18;101669.69;;;13.94;100.00
68986;BME280;56035;37.534;-122.308;2023-05-08T01:00:45;101682.47;;;13.84;100.00
68986;BME280;56035;37.534;-122.308;2023-05-08T01:03:12;101680.56;;;13.84;100.00
68986;BME280;56035;37.534;-122.308;2023-05-08T01:05:39;101675.97;;;13.78;100.00
68986;BME280;56035;37.534;-122.308;2023-05-08T01:08:06;101686.22;;;13.77;100.00
68986;BME280;56035;37.534;-122.308;2023-05-08T01:10:48;101688.25;;;13.70;100.00
68986;BME280;56035;37.534;-122.308;2023-05-08T01:15:56;101683.91;;;13.51;100.00
68986;BME280;56035;37.534;-122.308;2023-05-08T01:18:41;101683.66;;;13.41;100.00
68986;BME280;56035;37.534;-122.308;2023-05-08T01:21:36;101683.75;;;13.34;100.00
68986;BME280;56035;37.534;-122.308;2023-05-08T01:32:02;101673.72;;;13.21;100.00
68986;BME280;56035;37.534;-122.308;2023-05-08T01:34:31;101678.03;;;13.17;100.00
68986;BME280;56035;37.534;-122.308;2023-05-08T01:37:05;101669.72;;;13.05;100.00
68986;BME280;56035;37.534;-122.308;2023-05-08T01:42:54;101669.78;;;12.87;100.00
68986;BME280;56035;37.534;-122.308;2023-05-08T01:45:30;101670.97;;;12.79;100.00
68986;BME280;56035;37.534;-122.308;2023-05-08T01:48:03;101666.84;;;12.70;100.00
68986;BME280;56035;37.534;-122.308;2023-05-08T01:50:37;101665.63;;;12.66;100.00
68986;BME280;56035;37.534;-122.308;2023-05-08T01:53:35;101674.00;;;12.59;100.00
68986;BME280;56035;37.534;-122.308;2023-05-08T01:56:08;101670.88;;;12.56;100.00
68986;BME280;56035;37.534;-122.308;2023-05-08T01:58:36;101660.03;;;12.54;100.00
68986;BME280;56035;37.534;-122.308;2023-05-08T02:01:04;101662.66;;;12.49;100.00
68986;BME280;56035;37.534;-122.308;2023-05-08T02:03:30;101661.66;;;12.44;100.00
68986;BME280;56035;37.534;-122.308;2023-05-08T02:05:59;101655.41;;;12.36;100.00
68986;BME280;56035;37.534;-122.308;2023-05-08T02:08:28;101660.13;;;12.29;100.00
68986;BME280;56035;37.534;-122.308;2023-05-08T02:10:55;101658.91;;;12.25;100.00
68986;BME280;56035;37.534;-122.308;2023-05-08T02:13:23;101658.41;;;12.16;100.00
68986;BME280;56035;37.534;-122.308;2023-05-08T02:15:53;101660.16;;;12.11;100.00
68986;BME280;56035;37.534;-122.308;2023-05-08T02:18:22;101656.19;;;12.07;100.00
68986;BME280;56035;37.534;-122.308;2023-05-08T02:20:50;101663.22;;;12.03;100.00
68986;BME280;56035;37.534;-122.308;2023-05-08T02:23:18;101648.88;;;11.94;100.00
68986;BME280;56035;37.534;-122.308;2023-05-08T02:25:46;101655.09;;;11.89;100.00
68986;BME280;56035;37.534;-122.308;2023-05-08T02:28:15;101651.97;;;11.79;100.00
68986;BME280;56035;37.534;-122.308;2023-05-08T02:30:43;101647.38;;;11.73;100.00
68986;BME280;56035;37.534;-122.308;2023-05-08T02:33:11;101648.72;;;11.64;100.00
68986;BME280;56035;37.534;-122.308;2023-05-08T02:35:39;101647.28;;;11.61;100.00
68986;BME280;56035;37.534;-122.308;2023-05-08T02:38:08;101649.25;;;11.54;100.00
68986;BME280;56035;37.534;-122.308;2023-05-08T02:40:44;101653.78;;;11.48;100.00
68986;BME280;56035;37.534;-122.308;2023-05-08T02:43:11;101658.06;;;11.44;100.00
68986;BME280;56035;37.534;-122.308;2023-05-08T02:48:40;101650.81;;;11.25;100.00
68986;BME280;56035;37.534;-122.308;2023-05-08T02:51:19;101656.78;;;11.22;100.00
68986;BME280;56035;37.534;-122.308;2023-05-08T02:54:15;101657.66;;;11.16;100.00
68986;BME280;56035;37.534;-122.308;2023-05-08T02:57:30;101676.78;;;11.11;100.00
68986;BME280;56035;37.534;-122.308;2023-05-08T03:02:42;101675.59;;;11.00;100.00
68986;BME280;56035;37.534;-122.308;2023-05-08T03:05:16;101669.25;;;10.99;100.00
68986;BME280;56035;37.534;-122.308;2023-05-08T03:07:47;101678.84;;;10.90;100.00
68986;BME280;56035;37.534;-122.308;2023-05-08T03:10:16;101670.81;;;10.82;100.00
68986;BME280;56035;37.534;-122.308;2023-05-08T03:12:49;101673.41;;;10.77;100.00
68986;BME280;56035;37.534;-122.308;2023-05-08T03:15:24;101666.66;;;10.73;100.00
68986;BME280;56035;37.534;-122.308;2023-05-08T03:17:56;101678.56;;;10.67;100.00
68986;BME280;56035;37.534;-122.308;2023-05-08T03:20:25;101677.75;;;10.60;100.00
68986;BME280;56035;37.534;-122.308;2023-05-08T03:22:56;101684.75;;;10.55;100.00
68986;BME280;56035;37.534;-122.308;2023-05-08T03:25:24;101689.66;;;10.53;100.00
68986;BME280;56035;37.534;-122.308;2023-05-08T03:27:52;101697.72;;;10.48;100.00
68986;BME280;56035;37.534;-122.308;2023-05-08T03:30:18;101693.72;;;10.44;100.00
68986;BME280;56035;37.534;-122.308;2023-05-08T03:32:46;101688.00;;;10.39;100.00
68986;BME280;56035;37.534;-122.308;2023-05-08T03:35:15;101681.50;;;10.34;100.00
68986;BME280;56035;37.534;-122.308;2023-05-08T03:37:42;101687.63;;;10.29;100.00
68986;BME280;56035;37.534;-122.308;2023-05-08T03:40:08;101678.94;;;10.25;100.00
68986;BME280;56035;37.534;-122.308;2023-05-08T03:42:36;101688.47;;;10.23;100.00
68986;BME280;56035;37.534;-122.308;2023-05-08T03:45:04;101682.34;;;10.21;100.00
68986;BME280;56035;37.534;-122.308;2023-05-08T03:47:32;101692.31;;;10.15;100.00
68986;BME280;56035;37.534;-122.308;2023-05-08T03:50:00;101691.91;;;10.12;100.00
68986;BME280;56035;37.534;-122.308;2023-05-08T03:52:27;101697.59;;;10.10;100.00
68986;BME280;56035;37.534;-122.308;2023-05-08T03:54:54;101688.75;;;10.01;100.00
68986;BME280;56035;37.534;-122.308;2023-05-08T03:57:23;101694.25;;;10.01;100.00
68986;BME280;56035;37.534;-122.308;2023-05-08T04:02:56;101688.56;;;9.90;100.00
68986;BME280;56035;37.534;-122.308;2023-05-08T04:05:34;101698.75;;;9.82;100.00
68986;BME280;56035;37.534;-122.308;2023-05-08T04:08:24;101700.00;;;9.80;100.00
68986;BME280;56035;37.534;-122.308;2023-05-08T04:11:42;101692.59;;;9.80;100.00
68986;BME280;56035;37.534;-122.308;2023-05-08T04:13:52;101699.81;;;9.75;100.00
68986;BME280;56035;37.534;-122.308;2023-05-08T04:16:21;101707.66;;;9.78;100.00
68986;BME280;56035;37.534;-122.308;2023-05-08T04:19:00;101702.16;;;9.78;100.00
68986;BME280;56035;37.534;-122.308;2023-05-08T04:21:28;101711.44;;;9.77;100.00
68986;BME280;56035;37.534;-122.308;2023-05-08T04:23:57;101713.59;;;9.75;100.00
68986;BME280;56035;37.534;-122.308;2023-05-08T04:26:24;101704.69;;;9.66;100.00
68986;BME280;56035;37.534;-122.308;2023-05-08T04:28:51;101709.13;;;9.60;100.00
68986;BME280;56035;37.534;-122.308;2023-05-08T04:31:18;101713.59;;;9.55;100.00
68986;BME280;56035;37.534;-122.308;2023-05-08T04:33:45;101716.34;;;9.55;100.00
68986;BME280;56035;37.534;-122.308;2023-05-08T04:36:11;101719.09;;;9.48;100.00
68986;BME280;56035;37.534;-122.308;2023-05-08T04:38:39;101718.22;;;9.41;100.00
68986;BME280;56035;37.534;-122.308;2023-05-08T04:41:06;101716.56;;;9.40;100.00
68986;BME280;56035;37.534;-122.308;2023-05-08T04:43:33;101723.31;;;9.44;100.00
68986;BME280;56035;37.534;-122.308;2023-05-08T04:46:00;101714.66;;;9.41;100.00
68986;BME280;56035;37.534;-122.308;2023-05-08T04:48:27;101711.28;;;9.32;100.00
68986;BME280;56035;37.534;-122.308;2023-05-08T04:50:54;101707.88;;;9.30;100.00
68986;BME280;56035;37.534;-122.308;2023-05-08T04:53:20;101718.03;;;9.29;100.00
68986;BME280;56035;37.534;-122.308;2023-05-08T04:55:46;101719.50;;;9.25;100.00
68986;BME280;56035;37.534;-122.308;2023-05-08T04:58:12;101715.91;;;9.25;100.00
68986;BME280;56035;37.534;-122.308;2023-05-08T05:00:38;101715.69;;;9.20;100.00
68986;BME280;56035;37.534;-122.308;2023-05-08T05:03:05;101708.47;;;9.19;100.00
68986;BME280;56035;37.534;-122.308;2023-05-08T05:05:31;101715.28;;;9.23;100.00
68986;BME280;56035;37.534;-122.308;2023-05-08T05:07:57;101718.44;;;9.20;100.00
68986;BME280;56035;37.534;-122.308;2023-05-08T05:10:23;101709.97;;;9.14;100.00
68986;BME280;56035;37.534;-122.308;2023-05-08T05:12:49;101717.59;;;9.12;100.00
68986;BME280;56035;37.534;-122.308;2023-05-08T05:15:15;101708.94;;;9.16;100.00
68986;BME280;56035;37.534;-122.308;2023-05-08T05:17:42;101701.31;;;9.18;100.00
68986;BME280;56035;37.534;-122.308;2023-05-08T05:20:08;101697.94;;;9.16;100.00
68986;BME280;56035;37.534;-122.308;2023-05-08T05:22:34;101702.78;;;9.13;100.00
68986;BME280;56035;37.534;-122.308;2023-05-08T05:25:01;101704.06;;;9.18;100.00
68986;BME280;56035;37.534;-122.308;2023-05-08T05:27:27;101702.38;;;9.17;100.00
68986;BME280;56035;37.534;-122.308;2023-05-08T05:29:53;101700.88;;;9.14;100.00
68986;BME280;56035;37.534;-122.308;2023-05-08T05:32:19;101699.38;;;9.11;100.00
68986;BME280;56035;37.534;-122.308;2023-05-08T05:34:45;101702.78;;;9.07;100.00
68986;BME280;56035;37.534;-122.308;2023-05-08T05:37:11;101697.47;;;9.05;100.00
68986;BME280;56035;37.534;-122.308;2023-05-08T05:39:38;101690.53;;;9.09;100.00
68986;BME280;56035;37.534;-122.308;2023-05-08T05:42:04;101701.72;;;9.08;100.00
68986;BME280;56035;37.534;-122.308;2023-05-08T05:44:30;101703.22;;;9.10;100.00
68986;BME280;56035;37.534;-122.308;2023-05-08T05:46:56;101695.16;;;9.09;100.00
68986;BME280;56035;37.534;-122.308;2023-05-08T05:49:23;101697.72;;;9.10;100.00
68986;BME280;56035;37.534;-122.308;2023-05-08T05:51:49;101693.47;;;9.08;100.00
68986;BME280;56035;37.534;-122.308;2023-05-08T05:54:15;101701.94;;;9.06;100.00
68986;BME280;56035;37.534;-122.308;2023-05-08T05:56:41;101704.69;;;9.06;100.00
68986;BME280;56035;37.534;-122.308;2023-05-08T05:59:08;101701.50;;;9.03;100.00
68986;BME280;56035;37.534;-122.308;2023-05-08T06:01:34;101709.34;;;9.06;100.00
68986;BME280;56035;37.534;-122.308;2023-05-08T06:04:00;101715.69;;;9.06;100.00
68986;BME280;56035;37.534;-122.308;2023-05-08T06:06:26;101714.59;;;9.01;100.00
68986;BME280;56035;37.534;-122.308;2023-05-08T06:08:52;101719.88;;;8.96;100.00
68986;BME280;56035;37.534;-122.308;2023-05-08T06:11:19;101716.28;;;8.95;100.00
68986;BME280;56035;37.534;-122.308;2023-05-08T06:13:46;101714.34;;;8.89;100.00
68986;BME280;56035;37.534;-122.308;2023-05-08T06:16:13;101717.31;;;8.87;100.00
68986;BME280;56035;37.534;-122.308;2023-05-08T06:18:40;101715.00;;;8.91;100.00
68986;BME280;56035;37.534;-122.308;2023-05-08T06:21:06;101712.66;;;8.88;100.00
68986;BME280;56035;37.534;-122.308;2023-05-08T06:23:32;101712.25;;;8.91;100.00
68986;BME280;56035;37.534;-122.308;2023-05-08T06:25:58;101704.00;;;8.91;100.00
68986;BME280;56035;37.534;-122.308;2023-05-08T06:28:24;101699.16;;;8.93;100.00
68986;BME280;56035;37.534;-122.308;2023-05-08T06:30:52;101700.88;;;9.01;100.00
68986;BME280;56035;37.534;-122.308;2023-05-08T06:33:18;101696.41;;;8.93;100.00
68986;BME280;56035;37.534;-122.308;2023-05-08T06:35:45;101696.84;;;8.90;100.00
68986;BME280;56035;37.534;-122.308;2023-05-08T06:38:12;101695.53;;;8.86;100.00
68986;BME280;56035;37.534;-122.308;2023-05-08T06:40:43;101690.69;;;8.81;100.00
68986;BME280;56035;37.534;-122.308;2023-05-08T06:43:10;101691.50;;;8.75;100.00
68986;BME280;56035;37.534;-122.308;2023-05-08T06:45:37;101695.31;;;8.74;100.00
68986;BME280;56035;37.534;-122.308;2023-05-08T06:48:03;101695.72;;;8.64;100.00
68986;BME280;56035;37.534;-122.308;2023-05-08T06:50:30;101692.72;;;8.59;100.00
68986;BME280;56035;37.534;-122.308;2023-05-08T06:52:56;101700.13;;;8.59;100.00
68986;BME280;56035;37.534;-122.308;2023-05-08T06:55:22;101705.84;;;8.64;100.00
68986;BME280;56035;37.534;-122.308;2023-05-08T06:57:48;101692.72;;;8.59;100.00
68986;BME280;56035;37.534;-122.308;2023-05-08T07:00:15;101702.44;;;8.55;100.00
68986;BME280;56035;37.534;-122.308;2023-05-08T07:02:41;101695.00;;;8.49;100.00
68986;BME280;56035;37.534;-122.308;2023-05-08T07:05:07;101700.91;;;8.46;100.00
68986;BME280;56035;37.534;-122.308;2023-05-08T07:07:34;101687.38;;;8.38;100.00
68986;BME280;56035;37.534;-122.308;2023-05-08T07:10:00;101689.44;;;8.36;100.00
68986;BME280;56035;37.534;-122.308;2023-05-08T07:12:27;101698.50;;;8.30;100.00
68986;BME280;56035;37.534;-122.308;2023-05-08T07:14:53;101696.56;;;8.24;100.00
68986;BME280;56035;37.534;-122.308;2023-05-08T07:17:19;101702.25;;;8.22;100.00
68986;BME280;56035;37.534;-122.308;2023-05-08T07:19:49;101701.81;;;8.18;100.00
68986;BME280;56035;37.534;-122.308;2023-05-08T07:22:16;101691.25;;;8.15;100.00
68986;BME280;56035;37.534;-122.308;2023-05-08T07:24:42;101687.09;;;8.33;100.00
68986;BME280;56035;37.534;-122.308;2023-05-08T07:27:08;101693.63;;;8.25;100.00
68986;BME280;56035;37.534;-122.308;2023-05-08T07:29:34;101697.22;;;8.26;100.00
68986;BME280;56035;37.534;-122.308;2023-05-08T07:32:01;101704.56;;;8.18;100.00
68986;BME280;56035;37.534;-122.308;2023-05-08T07:34:27;101701.13;;;8.10;100.00
68986;BME280;56035;37.534;-122.308;2023-05-08T07:36:53;101700.91;;;8.05;100.00
68986;BME280;56035;37.534;-122.308;2023-05-08T07:39:20;101689.25;;;7.96;100.00
68986;BME280;56035;37.534;-122.308;2023-05-08T07:41:46;101680.97;;;7.89;100.00
68986;BME280;56035;37.534;-122.308;2023-05-08T07:44:13;101681.81;;;7.90;100.00
68986;BME280;56035;37.534;-122.308;2023-05-08T07:46:39;101679.69;;;7.85;100.00
68986;BME280;56035;37.534;-122.308;2023-05-08T07:49:05;101677.34;;;7.82;100.00
68986;BME280;56035;37.534;-122.308;2023-05-08T07:51:31;101673.09;;;7.80;100.00
68986;BME280;56035;37.534;-122.308;2023-05-08T07:53:57;101678.34;;;7.74;100.00
68986;BME280;56035;37.534;-122.308;2023-05-08T07:56:24;101677.31;;;7.76;100.00
68986;BME280;56035;37.534;-122.308;2023-05-08T07:58:50;101672.63;;;7.69;100.00
68986;BME280;56035;37.534;-122.308;2023-05-08T08:01:16;101677.84;;;7.64;100.00
68986;BME280;56035;37.534;-122.308;2023-05-08T08:03:44;101673.03;;;7.66;100.00
68986;BME280;56035;37.534;-122.308;2023-05-08T08:06:10;101676.44;;;7.68;100.00
68986;BME280;56035;37.534;-122.308;2023-05-08T08:08:37;101678.28;;;7.68;100.00
68986;BME280;56035;37.534;-122.308;2023-05-08T08:11:04;101669.63;;;7.64;100.00
68986;BME280;56035;37.534;-122.308;2023-05-08T08:13:30;101675.41;;;7.76;100.00
68986;BME280;56035;37.534;-122.308;2023-05-08T08:15:58;101659.78;;;7.77;100.00
68986;BME280;56035;37.534;-122.308;2023-05-08T08:18:24;101668.03;;;7.77;100.00
68986;BME280;56035;37.534;-122.308;2023-05-08T08:20:50;101660.00;;;7.75;100.00
68986;BME280;56035;37.534;-122.308;2023-05-08T08:23:17;101665.50;;;7.75;100.00
68986;BME280;56035;37.534;-122.308;2023-05-08T08:25:43;101660.59;;;7.70;100.00
68986;BME280;56035;37.534;-122.308;2023-05-08T08:28:09;101662.72;;;7.68;100.00
68986;BME280;56035;37.534;-122.308;2023-05-08T08:30:35;101655.91;;;7.64;100.00
68986;BME280;56035;37.534;-122.308;2023-05-08T08:33:01;101662.28;;;7.71;100.00
68986;BME280;56035;37.534;-122.308;2023-05-08T08:35:28;101654.75;;;7.80;100.00
68986;BME280;56035;37.534;-122.308;2023-05-08T08:37:57;101656.66;;;7.80;100.00
68986;BME280;56035;37.534;-122.308;2023-05-08T08:40:24;101659.78;;;7.77;100.00
68986;BME280;56035;37.534;-122.308;2023-05-08T08:42:50;101654.28;;;7.70;100.00
68986;BME280;56035;37.534;-122.308;2023-05-08T08:45:16;101658.09;;;7.76;100.00
68986;BME280;56035;37.534;-122.308;2023-05-08T08:47:44;101646.69;;;7.72;100.00
68986;BME280;56035;37.534;-122.308;2023-05-08T08:50:13;101646.44;;;7.67;100.00
68986;BME280;56035;37.534;-122.308;2023-05-08T08:52:55;101647.28;;;7.67;100.00
68986;BME280;56035;37.534;-122.308;2023-05-08T08:55:25;101640.16;;;7.73;100.00
68986;BME280;56035;37.534;-122.308;2023-05-08T08:58:03;101638.56;;;7.92;100.00
68986;BME280;56035;37.534;-122.308;2023-05-08T09:00:34;101637.13;;;7.96;100.00
68986;BME280;56035;37.534;-122.308;2023-05-08T09:03:04;101626.38;;;8.01;100.00
68986;BME280;56035;37.534;-122.308;2023-05-08T09:05:31;101622.13;;;7.92;100.00
68986;BME280;56035;37.534;-122.308;2023-05-08T09:07:57;101629.66;;;7.83;100.00
68986;BME280;56035;37.534;-122.308;2023-05-08T09:10:24;101618.00;;;7.74;100.00
68986;BME280;56035;37.534;-122.308;2023-05-08T09:12:51;101624.16;;;7.83;100.00
68986;BME280;56035;37.534;-122.308;2023-05-08T09:15:17;101616.56;;;7.79;100.00
68986;BME280;56035;37.534;-122.308;2023-05-08T09:17:43;101619.53;;;7.84;100.00
68986;BME280;56035;37.534;-122.308;2023-05-08T09:20:10;101624.97;;;7.77;100.00
68986;BME280;56035;37.534;-122.308;2023-05-08T09:22:39;101620.59;;;7.83;100.00
68986;BME280;56035;37.534;-122.308;2023-05-08T09:25:06;101618.91;;;7.82;100.00
68986;BME280;56035;37.534;-122.308;2023-05-08T09:27:32;101610.41;;;7.77;100.00
68986;BME280;56035;37.534;-122.308;2023-05-08T09:30:10;101607.94;;;7.82;100.00
68986;BME280;56035;37.534;-122.308;2023-05-08T09:32:38;101612.34;;;7.83;100.00
68986;BME280;56035;37.534;-122.308;2023-05-08T09:35:06;101607.47;;;7.78;100.00
68986;BME280;56035;37.534;-122.308;2023-05-08T09:37:33;101610.41;;;7.77;100.00
68986;BME280;56035;37.534;-122.308;2023-05-08T09:40:19;101605.78;;;7.77;100.00
68986;BME280;56035;37.534;-122.308;2023-05-08T09:42:47;101601.75;;;7.73;100.00
68986;BME280;56035;37.534;-122.308;2023-05-08T09:45:30;101597.72;;;7.69;100.00
68986;BME280;56035;37.534;-122.308;2023-05-08T09:47:57;101609.75;;;7.74;100.00
68986;BME280;56035;37.534;-122.308;2023-05-08T09:50:24;101615.06;;;7.76;100.00
68986;BME280;56035;37.534;-122.308;2023-05-08T09:52:50;101602.59;;;7.73;100.00
68986;BME280;56035;37.534;-122.308;2023-05-08T09:55:16;101609.53;;;7.69;100.00
68986;BME280;56035;37.534;-122.308;2023-05-08T09:57:57;101603.00;;;7.70;100.00
68986;BME280;56035;37.534;-122.308;2023-05-08T10:00:25;101605.75;;;7.70;100.00
68986;BME280;56035;37.534;-122.308;2023-05-08T10:03:01;101612.06;;;7.71;100.00
68986;BME280;56035;37.534;-122.308;2023-05-08T10:05:30;101607.84;;;7.68;100.00
68986;BME280;56035;37.534;-122.308;2023-05-08T10:07:57;101616.28;;;7.67;100.00
68986;BME280;56035;37.534;-122.308;2023-05-08T10:10:28;101612.28;;;7.69;100.00
68986;BME280;56035;37.534;-122.308;2023-05-08T10:12:57;101614.63;;;7.72;100.00
68986;BME280;56035;37.534;-122.308;2023-05-08T10:15:27;101609.53;;;7.69;100.00
68986;BME280;56035;37.534;-122.308;2023-05-08T10:20:28;101605.16;;;7.75;100.00
68986;BME280;56035;37.534;-122.308;2023-05-08T10:22:56;101611.69;;;7.81;100.00
68986;BME280;56035;37.534;-122.308;2023-05-08T10:25:23;101608.78;;;7.82;100.00
68986;BME280;56035;37.534;-122.308;2023-05-08T10:30:26;101607.69;;;7.77;100.00
68986;BME280;56035;37.534;-122.308;2023-05-08T10:32:53;101607.00;;;7.68;100.00
68986;BME280;56035;37.534;-122.308;2023-05-08T10:35:21;101611.59;;;7.61;100.00
68986;BME280;56035;37.534;-122.308;2023-05-08T10:37:48;101609.66;;;7.55;100.00
68986;BME280;56035;37.534;-122.308;2023-05-08T10:40:15;101604.13;;;7.48;100.00
68986;BME280;56035;37.534;-122.308;2023-05-08T10:42:41;101607.28;;;7.45;100.00
68986;BME280;56035;37.534;-122.308;2023-05-08T10:45:07;101608.06;;;7.39;100.00
68986;BME280;56035;37.534;-122.308;2023-05-08T10:56:11;101614.91;;;7.21;100.00
68986;BME280;56035;37.534;-122.308;2023-05-08T10:58:38;101612.16;;;7.21;100.00
68986;BME280;56035;37.534;-122.308;2023-05-08T11:03:43;101625.06;;;7.27;100.00
68986;BME280;56035;37.534;-122.308;2023-05-08T11:06:10;101626.59;;;7.30;100.00
68986;BME280;56035;37.534;-122.308;2023-05-08T11:08:48;101631.22;;;7.30;100.00
68986;BME280;56035;37.534;-122.308;2023-05-08T11:11:25;101626.75;;;7.28;100.00
68986;BME280;56035;37.534;-122.308;2023-05-08T11:14:10;101624.28;;;7.34;100.00
68986;BME280;56035;37.534;-122.308;2023-05-08T11:19:23;101623.09;;;7.43;100.00
68986;BME280;56035;37.534;-122.308;2023-05-08T11:22:12;101625.63;;;7.44;100.00
68986;BME280;56035;37.534;-122.308;2023-05-08T11:24:45;101621.63;;;7.47;100.00
68986;BME280;56035;37.534;-122.308;2023-05-08T11:27:13;101622.88;;;7.44;100.00
68986;BME280;56035;37.534;-122.308;2023-05-08T11:29:39;101623.41;;;7.61;100.00
68986;BME280;56035;37.534;-122.308;2023-05-08T11:32:06;101610.38;;;7.70;100.00
68986;BME280;56035;37.534;-122.308;2023-05-08T11:37:18;101615.50;;;7.80;100.00
68986;BME280;56035;37.534;-122.308;2023-05-08T11:39:44;101624.78;;;7.79;100.00
68986;BME280;56035;37.534;-122.308;2023-05-08T11:42:37;101621.00;;;7.80;100.00
68986;BME280;56035;37.534;-122.308;2023-05-08T11:47:43;101618.56;;;7.98;100.00
68986;BME280;56035;37.534;-122.308;2023-05-08T11:50:11;101614.50;;;7.94;100.00
68986;BME280;56035;37.534;-122.308;2023-05-08T11:52:39;101619.56;;;7.90;100.00
68986;BME280;56035;37.534;-122.308;2023-05-08T11:55:08;101621.28;;;7.91;100.00
68986;BME280;56035;37.534;-122.308;2023-05-08T11:57:35;101616.41;;;7.93;100.00
68986;BME280;56035;37.534;-122.308;2023-05-08T12:00:09;101613.50;;;8.02;100.00
68986;BME280;56035;37.534;-122.308;2023-05-08T12:02:36;101608.50;;;8.18;100.00
68986;BME280;56035;37.534;-122.308;2023-05-08T12:05:04;101603.47;;;8.29;100.00
68986;BME280;56035;37.534;-122.308;2023-05-08T12:07:30;101609.78;;;8.29;100.00
68986;BME280;56035;37.534;-122.308;2023-05-08T12:09:56;101601.84;;;8.41;100.00
68986;BME280;56035;37.534;-122.308;2023-05-08T12:12:22;101609.28;;;8.54;100.00
68986;BME280;56035;37.534;-122.308;2023-05-08T12:14:49;101613.06;;;8.59;100.00
68986;BME280;56035;37.534;-122.308;2023-05-08T12:17:19;101612.22;;;8.59;100.00
68986;BME280;56035;37.534;-122.308;2023-05-08T12:19:45;101593.84;;;8.66;100.00
68986;BME280;56035;37.534;-122.308;2023-05-08T12:22:11;101598.94;;;8.76;100.00
68986;BME280;56035;37.534;-122.308;2023-05-08T12:24:38;101600.22;;;8.80;100.00
68986;BME280;56035;37.534;-122.308;2023-05-08T12:27:04;101597.91;;;8.77;100.00
68986;BME280;56035;37.534;-122.308;2023-05-08T12:29:34;101596.84;;;8.78;100.00
68986;BME280;56035;37.534;-122.308;2023-05-08T12:32:01;101593.03;;;8.79;100.00
68986;BME280;56035;37.534;-122.308;2023-05-08T12:34:27;101593.25;;;8.84;100.00
68986;BME280;56035;37.534;-122.308;2023-05-08T12:37:04;101586.28;;;8.88;100.00
68986;BME280;56035;37.534;-122.308;2023-05-08T12:39:34;101595.56;;;9.07;100.00
68986;BME280;56035;37.534;-122.308;2023-05-08T12:42:02;101589.66;;;9.03;100.00
68986;BME280;56035;37.534;-122.308;2023-05-08T12:44:29;101590.06;;;9.07;100.00
68986;BME280;56035;37.534;-122.308;2023-05-08T12:46:55;101591.75;;;9.08;100.00
68986;BME280;56035;37.534;-122.308;2023-05-08T12:51:51;101596.41;;;9.14;100.00
68986;BME280;56035;37.534;-122.308;2023-05-08T12:54:39;101603.81;;;9.13;100.00
68986;BME280;56035;37.534;-122.308;2023-05-08T12:57:08;101597.25;;;9.14;100.00
68986;BME280;56035;37.534;-122.308;2023-05-08T12:59:35;101588.81;;;9.16;100.00
68986;BME280;56035;37.534;-122.308;2023-05-08T13:02:01;101582.25;;;9.17;100.00
68986;BME280;56035;37.534;-122.308;2023-05-08T13:04:28;101583.72;;;9.20;100.00
68986;BME280;56035;37.534;-122.308;2023-05-08T13:06:55;101590.91;;;9.21;100.00
68986;BME280;56035;37.534;-122.308;2023-05-08T13:09:22;101590.25;;;9.19;100.00
68986;BME280;56035;37.534;-122.308;2023-05-08T13:11:48;101591.75;;;9.14;100.00
68986;BME280;56035;37.534;-122.308;2023-05-08T13:14:14;101587.75;;;9.10;100.00
68986;BME280;56035;37.534;-122.308;2023-05-08T13:16:42;101587.09;;;9.08;100.00